sensor_id;sensor_type;location;lat;lon;timestamp;temperature;humidity
21559;DHT22;10940;48.890;8.240;2022-08-25T00:01:48;21.00;99.90
21559;DHT22;10940;48.890;8.240;2022-08-25T00:04:16;20.90;99.90
21559;DHT22;10940;48.890;8.240;2022-08-25T00:06:43;20.90;99.90
21559;DHT22;10940;48.890;8.240;2022-08-25T00:09:11;21.00;99.90
21559;DHT22;10940;48.890;8.240;2022-08-25T00:11:38;20.90;99.90
21559;DHT22;10940;48.890;8.240;2022-08-25T00:14:08;21.00;99.90
21559;DHT22;10940;48.890;8.240;2022-08-25T00:16:33;20.90;99.90
21559;DHT22;10940;48.890;8.240;2022-08-25T00:19:03;20.90;99.90
21559;DHT22;10940;48.890;8.240;2022-08-25T00:21:30;20.90;99.90
21559;DHT22;10940;48.890;8.240;2022-08-25T00:23:56;20.80;99.90
21559;DHT22;10940;48.890;8.240;2022-08-25T00:26:22;20.80;99.90
21559;DHT22;10940;48.890;8.240;2022-08-25T00:28:47;20.80;99.90
21559;DHT22;10940;48.890;8.240;2022-08-25T00:31:16;20.80;99.90
21559;DHT22;10940;48.890;8.240;2022-08-25T00:33:45;20.80;99.90
21559;DHT22;10940;48.890;8.240;2022-08-25T00:36:11;20.70;99.90
21559;DHT22;10940;48.890;8.240;2022-08-25T00:38:41;20.70;99.90
21559;DHT22;10940;48.890;8.240;2022-08-25T00:41:08;20.70;99.90
21559;DHT22;10940;48.890;8.240;2022-08-25T00:46:16;20.60;99.90
21559;DHT22;10940;48.890;8.240;2022-08-25T00:48:44;20.60;99.90
21559;DHT22;10940;48.890;8.240;2022-08-25T00:51:14;20.50;99.90
21559;DHT22;10940;48.890;8.240;2022-08-25T00:53:41;20.50;99.90
21559;DHT22;10940;48.890;8.240;2022-08-25T00:56:08;20.50;99.90
21559;DHT22;10940;48.890;8.240;2022-08-25T00:58:34;20.50;99.90
21559;DHT22;10940;48.890;8.240;2022-08-25T01:01:00;20.50;99.90
21559;DHT22;10940;48.890;8.240;2022-08-25T01:03:29;20.50;99.90
21559;DHT22;10940;48.890;8.240;2022-08-25T01:05:58;20.40;99.90
21559;DHT22;10940;48.890;8.240;2022-08-25T01:08:26;20.50;99.90
21559;DHT22;10940;48.890;8.240;2022-08-25T01:10:53;20.50;99.90
21559;DHT22;10940;48.890;8.240;2022-08-25T01:13:23;20.40;99.90
21559;DHT22;10940;48.890;8.240;2022-08-25T01:15:53;20.50;99.90
21559;DHT22;10940;48.890;8.240;2022-08-25T01:18:20;20.50;99.90
21559;DHT22;10940;48.890;8.240;2022-08-25T01:20:51;20.40;99.90
21559;DHT22;10940;48.890;8.240;2022-08-25T01:23:16;20.40;99.90
21559;DHT22;10940;48.890;8.240;2022-08-25T01:26:04;20.40;99.90
21559;DHT22;10940;48.890;8.240;2022-08-25T01:28:31;20.40;99.90
21559;DHT22;10940;48.890;8.240;2022-08-25T01:30:57;20.40;99.90
21559;DHT22;10940;48.890;8.240;2022-08-25T01:33:23;20.40;99.90
21559;DHT22;10940;48.890;8.240;2022-08-25T01:35:48;20.30;99.90
21559;DHT22;10940;48.890;8.240;2022-08-25T01:38:15;20.20;99.90
21559;DHT22;10940;48.890;8.240;2022-08-25T01:40:41;20.20;99.90
21559;DHT22;10940;48.890;8.240;2022-08-25T01:45:40;20.00;99.90
21559;DHT22;10940;48.890;8.240;2022-08-25T01:48:07;20.00;99.90
21559;DHT22;10940;48.890;8.240;2022-08-25T01:50:33;20.00;99.90
21559;DHT22;10940;48.890;8.240;2022-08-25T01:53:07;19.90;99.90
21559;DHT22;10940;48.890;8.240;2022-08-25T01:55:34;19.90;99.90
21559;DHT22;10940;48.890;8.240;2022-08-25T01:58:19;19.90;99.90
21559;DHT22;10940;48.890;8.240;2022-08-25T02:00:49;19.90;99.90
21559;DHT22;10940;48.890;8.240;2022-08-25T02:03:16;19.90;99.90
21559;DHT22;10940;48.890;8.240;2022-08-25T02:05:43;19.90;99.90
21559;DHT22;10940;48.890;8.240;2022-08-25T02:08:09;19.90;99.90
21559;DHT22;10940;48.890;8.240;2022-08-25T02:10:36;19.80;99.90
21559;DHT22;10940;48.890;8.240;2022-08-25T02:13:02;19.90;99.90
21559;DHT22;10940;48.890;8.240;2022-08-25T02:15:29;19.90;99.90
21559;DHT22;10940;48.890;8.240;2022-08-25T02:17:54;19.90;99.90
21559;DHT22;10940;48.890;8.240;2022-08-25T02:20:20;19.90;99.90
21559;DHT22;10940;48.890;8.240;2022-08-25T02:22:45;19.90;99.90
21559;DHT22;10940;48.890;8.240;2022-08-25T02:25:11;19.90;99.90
21559;DHT22;10940;48.890;8.240;2022-08-25T02:27:37;19.80;99.90
21559;DHT22;10940;48.890;8.240;2022-08-25T02:30:04;19.80;99.90
21559;DHT22;10940;48.890;8.240;2022-08-25T02:32:29;19.90;99.90
21559;DHT22;10940;48.890;8.240;2022-08-25T02:34:55;19.80;99.90
21559;DHT22;10940;48.890;8.240;2022-08-25T02:37:21;19.80;99.90
21559;DHT22;10940;48.890;8.240;2022-08-25T02:39:47;19.80;99.90
21559;DHT22;10940;48.890;8.240;2022-08-25T02:42:12;19.80;99.90
21559;DHT22;10940;48.890;8.240;2022-08-25T02:44:39;19.80;99.90
21559;DHT22;10940;48.890;8.240;2022-08-25T02:47:05;19.70;99.90
21559;DHT22;10940;48.890;8.240;2022-08-25T02:49:31;19.70;99.90
21559;DHT22;10940;48.890;8.240;2022-08-25T02:51:57;19.70;99.90
21559;DHT22;10940;48.890;8.240;2022-08-25T02:54:25;19.70;99.90
21559;DHT22;10940;48.890;8.240;2022-08-25T02:56:51;19.60;99.90
21559;DHT22;10940;48.890;8.240;2022-08-25T02:59:17;19.60;99.90
21559;DHT22;10940;48.890;8.240;2022-08-25T03:01:43;19.60;99.90
21559;DHT22;10940;48.890;8.240;2022-08-25T03:04:10;19.50;99.90
21559;DHT22;10940;48.890;8.240;2022-08-25T03:06:36;19.50;99.90
21559;DHT22;10940;48.890;8.240;2022-08-25T03:09:02;19.50;99.90
21559;DHT22;10940;48.890;8.240;2022-08-25T03:11:28;19.50;99.90
21559;DHT22;10940;48.890;8.240;2022-08-25T03:13:54;19.40;99.90
21559;DHT22;10940;48.890;8.240;2022-08-25T03:16:20;19.40;99.90
21559;DHT22;10940;48.890;8.240;2022-08-25T03:18:47;19.30;99.90
21559;DHT22;10940;48.890;8.240;2022-08-25T03:21:13;19.30;99.90
21559;DHT22;10940;48.890;8.240;2022-08-25T03:23:40;19.20;99.90
21559;DHT22;10940;48.890;8.240;2022-08-25T03:26:06;19.10;99.90
21559;DHT22;10940;48.890;8.240;2022-08-25T03:28:50;19.10;99.90
21559;DHT22;10940;48.890;8.240;2022-08-25T03:31:16;19.20;99.90
21559;DHT22;10940;48.890;8.240;2022-08-25T03:33:42;19.20;99.90
21559;DHT22;10940;48.890;8.240;2022-08-25T03:36:08;19.10;99.90
21559;DHT22;10940;48.890;8.240;2022-08-25T03:38:36;19.10;99.90
21559;DHT22;10940;48.890;8.240;2022-08-25T03:41:11;19.20;99.90
21559;DHT22;10940;48.890;8.240;2022-08-25T03:43:39;19.10;99.90
21559;DHT22;10940;48.890;8.240;2022-08-25T03:46:05;19.10;99.90
21559;DHT22;10940;48.890;8.240;2022-08-25T03:48:30;19.00;99.90
21559;DHT22;10940;48.890;8.240;2022-08-25T03:50:56;19.00;99.90
21559;DHT22;10940;48.890;8.240;2022-08-25T03:53:22;18.90;99.90
21559;DHT22;10940;48.890;8.240;2022-08-25T03:55:48;18.90;99.90
21559;DHT22;10940;48.890;8.240;2022-08-25T03:58:13;18.70;99.90
21559;DHT22;10940;48.890;8.240;2022-08-25T04:00:39;18.70;99.90
21559;DHT22;10940;48.890;8.240;2022-08-25T04:03:05;18.60;99.90
21559;DHT22;10940;48.890;8.240;2022-08-25T04:05:31;18.50;99.90
21559;DHT22;10940;48.890;8.240;2022-08-25T04:07:57;18.50;99.90
21559;DHT22;10940;48.890;8.240;2022-08-25T04:10:22;18.50;99.90
21559;DHT22;10940;48.890;8.240;2022-08-25T04:12:48;18.50;99.90
21559;DHT22;10940;48.890;8.240;2022-08-25T04:15:14;18.50;99.90
21559;DHT22;10940;48.890;8.240;2022-08-25T04:17:39;18.60;99.90
21559;DHT22;10940;48.890;8.240;2022-08-25T04:20:07;18.60;99.90
21559;DHT22;10940;48.890;8.240;2022-08-25T04:22:34;18.60;99.90
21559;DHT22;10940;48.890;8.240;2022-08-25T04:25:01;18.60;99.90
21559;DHT22;10940;48.890;8.240;2022-08-25T04:27:27;18.60;99.90
21559;DHT22;10940;48.890;8.240;2022-08-25T04:29:53;18.60;99.90
21559;DHT22;10940;48.890;8.240;2022-08-25T04:32:19;18.60;99.90
21559;DHT22;10940;48.890;8.240;2022-08-25T04:34:44;18.60;99.90
21559;DHT22;10940;48.890;8.240;2022-08-25T04:37:10;18.60;99.90
21559;DHT22;10940;48.890;8.240;2022-08-25T04:39:36;18.50;99.90
21559;DHT22;10940;48.890;8.240;2022-08-25T04:42:02;18.40;99.90
21559;DHT22;10940;48.890;8.240;2022-08-25T04:44:29;18.40;99.90
21559;DHT22;10940;48.890;8.240;2022-08-25T04:46:55;18.30;99.90
21559;DHT22;10940;48.890;8.240;2022-08-25T04:49:20;18.30;99.90
21559;DHT22;10940;48.890;8.240;2022-08-25T04:51:46;18.30;99.90
21559;DHT22;10940;48.890;8.240;2022-08-25T04:54:14;18.20;99.90
21559;DHT22;10940;48.890;8.240;2022-08-25T04:56:47;18.20;99.90
21559;DHT22;10940;48.890;8.240;2022-08-25T04:59:14;18.20;99.90
21559;DHT22;10940;48.890;8.240;2022-08-25T05:01:41;18.20;99.90
21559;DHT22;10940;48.890;8.240;2022-08-25T05:04:09;18.20;99.90
21559;DHT22;10940;48.890;8.240;2022-08-25T05:06:34;18.20;99.90
21559;DHT22;10940;48.890;8.240;2022-08-25T05:09:02;18.20;99.90
21559;DHT22;10940;48.890;8.240;2022-08-25T05:11:28;18.20;99.90
21559;DHT22;10940;48.890;8.240;2022-08-25T05:13:55;18.20;99.90
21559;DHT22;10940;48.890;8.240;2022-08-25T05:16:23;18.20;99.90
21559;DHT22;10940;48.890;8.240;2022-08-25T05:18:49;18.30;99.90
21559;DHT22;10940;48.890;8.240;2022-08-25T05:21:17;18.30;99.90
21559;DHT22;10940;48.890;8.240;2022-08-25T05:23:43;18.30;99.90
21559;DHT22;10940;48.890;8.240;2022-08-25T05:26:14;18.40;99.90
21559;DHT22;10940;48.890;8.240;2022-08-25T05:28:40;18.50;99.90
21559;DHT22;10940;48.890;8.240;2022-08-25T05:31:07;18.50;99.90
21559;DHT22;10940;48.890;8.240;2022-08-25T05:33:35;18.50;99.90
21559;DHT22;10940;48.890;8.240;2022-08-25T05:36:00;18.50;99.90
21559;DHT22;10940;48.890;8.240;2022-08-25T05:38:26;18.60;99.90
21559;DHT22;10940;48.890;8.240;2022-08-25T05:40:56;18.70;99.90
21559;DHT22;10940;48.890;8.240;2022-08-25T05:43:22;18.80;99.90
21559;DHT22;10940;48.890;8.240;2022-08-25T05:45:49;18.90;99.90
21559;DHT22;10940;48.890;8.240;2022-08-25T05:48:14;18.90;99.90
21559;DHT22;10940;48.890;8.240;2022-08-25T05:50:40;19.00;99.90
21559;DHT22;10940;48.890;8.240;2022-08-25T05:53:06;19.10;99.90
21559;DHT22;10940;48.890;8.240;2022-08-25T05:55:31;19.10;99.90
21559;DHT22;10940;48.890;8.240;2022-08-25T05:57:57;19.20;99.90
21559;DHT22;10940;48.890;8.240;2022-08-25T06:00:23;19.30;99.90
21559;DHT22;10940;48.890;8.240;2022-08-25T06:02:49;19.30;99.90
21559;DHT22;10940;48.890;8.240;2022-08-25T06:05:20;19.40;99.90
21559;DHT22;10940;48.890;8.240;2022-08-25T06:07:48;19.50;99.90
21559;DHT22;10940;48.890;8.240;2022-08-25T06:10:15;19.60;99.90
21559;DHT22;10940;48.890;8.240;2022-08-25T06:12:42;19.70;99.90
21559;DHT22;10940;48.890;8.240;2022-08-25T06:15:14;19.80;99.90
21559;DHT22;10940;48.890;8.240;2022-08-25T06:17:40;20.00;99.90
21559;DHT22;10940;48.890;8.240;2022-08-25T06:20:12;20.20;99.90
21559;DHT22;10940;48.890;8.240;2022-08-25T06:22:38;20.30;99.90
21559;DHT22;10940;48.890;8.240;2022-08-25T06:25:04;20.40;99.90
21559;DHT22;10940;48.890;8.240;2022-08-25T06:27:30;20.60;99.90
21559;DHT22;10940;48.890;8.240;2022-08-25T06:29:56;20.80;99.90
21559;DHT22;10940;48.890;8.240;2022-08-25T06:32:22;20.90;99.90
21559;DHT22;10940;48.890;8.240;2022-08-25T06:34:47;21.00;99.90
21559;DHT22;10940;48.890;8.240;2022-08-25T06:37:13;21.20;99.90
21559;DHT22;10940;48.890;8.240;2022-08-25T06:39:38;21.30;99.90
21559;DHT22;10940;48.890;8.240;2022-08-25T06:42:04;21.40;99.90
21559;DHT22;10940;48.890;8.240;2022-08-25T06:44:30;21.50;99.90
21559;DHT22;10940;48.890;8.240;2022-08-25T06:46:55;21.60;99.90
21559;DHT22;10940;48.890;8.240;2022-08-25T06:49:22;21.80;99.90
21559;DHT22;10940;48.890;8.240;2022-08-25T06:51:48;21.90;99.90
21559;DHT22;10940;48.890;8.240;2022-08-25T06:54:14;22.00;99.90
21559;DHT22;10940;48.890;8.240;2022-08-25T06:56:40;22.20;99.90
21559;DHT22;10940;48.890;8.240;2022-08-25T06:59:07;22.30;99.90
21559;DHT22;10940;48.890;8.240;2022-08-25T07:01:33;22.40;99.90
21559;DHT22;10940;48.890;8.240;2022-08-25T07:04:02;22.40;99.90
21559;DHT22;10940;48.890;8.240;2022-08-25T07:06:30;22.60;99.90
21559;DHT22;10940;48.890;8.240;2022-08-25T07:08:56;22.70;99.90
21559;DHT22;10940;48.890;8.240;2022-08-25T07:11:22;22.80;99.90
21559;DHT22;10940;48.890;8.240;2022-08-25T07:13:48;22.90;99.90
21559;DHT22;10940;48.890;8.240;2022-08-25T07:16:13;23.10;99.90
21559;DHT22;10940;48.890;8.240;2022-08-25T07:18:40;23.30;99.90
21559;DHT22;10940;48.890;8.240;2022-08-25T07:21:06;23.40;99.90
21559;DHT22;10940;48.890;8.240;2022-08-25T07:23:31;23.60;99.90
21559;DHT22;10940;48.890;8.240;2022-08-25T07:26:16;23.80;99.90
21559;DHT22;10940;48.890;8.240;2022-08-25T07:28:42;23.90;99.90
21559;DHT22;10940;48.890;8.240;2022-08-25T07:31:08;24.00;99.90
21559;DHT22;10940;48.890;8.240;2022-08-25T07:33:33;24.20;99.90
21559;DHT22;10940;48.890;8.240;2022-08-25T07:35:59;24.40;99.90
21559;DHT22;10940;48.890;8.240;2022-08-25T07:38:25;24.50;99.90
21559;DHT22;10940;48.890;8.240;2022-08-25T07:40:51;24.70;99.90
21559;DHT22;10940;48.890;8.240;2022-08-25T07:43:20;24.80;99.90
21559;DHT22;10940;48.890;8.240;2022-08-25T07:45:47;25.00;99.90
21559;DHT22;10940;48.890;8.240;2022-08-25T07:48:13;25.10;99.90
21559;DHT22;10940;48.890;8.240;2022-08-25T07:50:42;25.10;99.90
21559;DHT22;10940;48.890;8.240;2022-08-25T07:53:10;25.20;99.90
21559;DHT22;10940;48.890;8.240;2022-08-25T07:55:36;25.30;99.90
21559;DHT22;10940;48.890;8.240;2022-08-25T07:58:04;25.40;99.90
21559;DHT22;10940;48.890;8.240;2022-08-25T08:00:31;25.50;99.90
21559;DHT22;10940;48.890;8.240;2022-08-25T08:02:59;25.70;99.90
21559;DHT22;10940;48.890;8.240;2022-08-25T08:05:26;25.70;99.90
21559;DHT22;10940;48.890;8.240;2022-08-25T08:07:52;25.90;99.90
21559;DHT22;10940;48.890;8.240;2022-08-25T08:10:18;26.00;99.90
21559;DHT22;10940;48.890;8.240;2022-08-25T08:12:45;26.10;99.90
21559;DHT22;10940;48.890;8.240;2022-08-25T08:15:11;26.20;99.90
21559;DHT22;10940;48.890;8.240;2022-08-25T08:17:38;26.30;99.90
21559;DHT22;10940;48.890;8.240;2022-08-25T08:20:04;26.30;99.90
21559;DHT22;10940;48.890;8.240;2022-08-25T08:22:34;26.40;99.90
21559;DHT22;10940;48.890;8.240;2022-08-25T08:25:00;26.50;99.90
21559;DHT22;10940;48.890;8.240;2022-08-25T08:27:26;26.60;99.90
21559;DHT22;10940;48.890;8.240;2022-08-25T08:29:52;26.70;99.90
21559;DHT22;10940;48.890;8.240;2022-08-25T08:32:18;26.80;99.90
21559;DHT22;10940;48.890;8.240;2022-08-25T08:34:45;26.90;99.90
21559;DHT22;10940;48.890;8.240;2022-08-25T08:37:12;27.00;99.90
21559;DHT22;10940;48.890;8.240;2022-08-25T08:39:37;27.10;99.90
21559;DHT22;10940;48.890;8.240;2022-08-25T08:47:42;27.50;99.90
21559;DHT22;10940;48.890;8.240;2022-08-25T08:50:31;27.60;99.90
21559;DHT22;10940;48.890;8.240;2022-08-25T08:53:24;27.70;99.90
21559;DHT22;10940;48.890;8.240;2022-08-25T08:55:58;27.80;99.90
21559;DHT22;10940;48.890;8.240;2022-08-25T09:04:18;28.00;99.40
21559;DHT22;10940;48.890;8.240;2022-08-25T09:06:44;28.20;98.90
21559;DHT22;10940;48.890;8.240;2022-08-25T09:09:18;28.20;98.50
21559;DHT22;10940;48.890;8.240;2022-08-25T09:12:04;28.30;98.00
21559;DHT22;10940;48.890;8.240;2022-08-25T09:14:45;28.30;99.00
21559;DHT22;10940;48.890;8.240;2022-08-25T09:20:15;28.40;97.60
21559;DHT22;10940;48.890;8.240;2022-08-25T09:30:59;28.60;96.30
21559;DHT22;10940;48.890;8.240;2022-08-25T09:33:27;28.70;96.60
21559;DHT22;10940;48.890;8.240;2022-08-25T09:35:54;28.90;95.70
21559;DHT22;10940;48.890;8.240;2022-08-25T09:38:20;28.90;95.20
21559;DHT22;10940;48.890;8.240;2022-08-25T09:40:50;29.00;95.60
21559;DHT22;10940;48.890;8.240;2022-08-25T09:48:33;28.90;96.00
21559;DHT22;10940;48.890;8.240;2022-08-25T09:54:01;29.00;94.20
21559;DHT22;10940;48.890;8.240;2022-08-25T09:56:30;28.90;95.00
21559;DHT22;10940;48.890;8.240;2022-08-25T09:59:26;28.80;95.30
21559;DHT22;10940;48.890;8.240;2022-08-25T10:01:55;28.90;94.30
21559;DHT22;10940;48.890;8.240;2022-08-25T10:04:32;29.10;94.70
21559;DHT22;10940;48.890;8.240;2022-08-25T10:06:59;29.30;93.70
21559;DHT22;10940;48.890;8.240;2022-08-25T10:09:40;29.50;93.50
21559;DHT22;10940;48.890;8.240;2022-08-25T10:12:28;29.40;92.90
21559;DHT22;10940;48.890;8.240;2022-08-25T10:14:54;29.40;95.20
21559;DHT22;10940;48.890;8.240;2022-08-25T10:19:54;29.50;93.90
21559;DHT22;10940;48.890;8.240;2022-08-25T10:22:26;29.60;93.00
21559;DHT22;10940;48.890;8.240;2022-08-25T10:24:58;29.70;92.80
21559;DHT22;10940;48.890;8.240;2022-08-25T10:30:27;30.00;93.20
21559;DHT22;10940;48.890;8.240;2022-08-25T10:33:15;30.10;92.30
21559;DHT22;10940;48.890;8.240;2022-08-25T10:43:37;30.40;91.70
21559;DHT22;10940;48.890;8.240;2022-08-25T10:46:24;30.60;91.10
21559;DHT22;10940;48.890;8.240;2022-08-25T10:49:03;30.70;91.20
21559;DHT22;10940;48.890;8.240;2022-08-25T10:56:42;30.80;90.80
21559;DHT22;10940;48.890;8.240;2022-08-25T11:07:41;30.80;90.00
21559;DHT22;10940;48.890;8.240;2022-08-25T11:10:19;30.80;89.80
21559;DHT22;10940;48.890;8.240;2022-08-25T11:12:54;31.00;88.40
21559;DHT22;10940;48.890;8.240;2022-08-25T11:20:36;31.00;88.60
21559;DHT22;10940;48.890;8.240;2022-08-25T11:23:20;31.10;90.00
21559;DHT22;10940;48.890;8.240;2022-08-25T11:25:51;31.00;89.20
21559;DHT22;10940;48.890;8.240;2022-08-25T11:30:59;30.80;90.60
21559;DHT22;10940;48.890;8.240;2022-08-25T11:33:28;30.80;89.80
21559;DHT22;10940;48.890;8.240;2022-08-25T11:36:24;31.00;90.30
21559;DHT22;10940;48.890;8.240;2022-08-25T11:41:51;31.20;89.40
21559;DHT22;10940;48.890;8.240;2022-08-25T11:49:58;31.60;89.80
21559;DHT22;10940;48.890;8.240;2022-08-25T11:52:37;31.90;90.40
21559;DHT22;10940;48.890;8.240;2022-08-25T11:57:42;32.40;85.10
21559;DHT22;10940;48.890;8.240;2022-08-25T12:00:13;32.50;85.20
21559;DHT22;10940;48.890;8.240;2022-08-25T12:02:44;32.60;84.80
21559;DHT22;10940;48.890;8.240;2022-08-25T12:10:16;33.40;84.10
21559;DHT22;10940;48.890;8.240;2022-08-25T12:17:43;34.30;79.10
21559;DHT22;10940;48.890;8.240;2022-08-25T12:20:09;34.20;81.10
21559;DHT22;10940;48.890;8.240;2022-08-25T12:25:19;34.20;79.20
21559;DHT22;10940;48.890;8.240;2022-08-25T12:30:27;33.90;79.40
21559;DHT22;10940;48.890;8.240;2022-08-25T12:35:52;33.60;83.10
21559;DHT22;10940;48.890;8.240;2022-08-25T12:38:41;33.50;80.20
21559;DHT22;10940;48.890;8.240;2022-08-25T12:41:26;33.40;82.00
21559;DHT22;10940;48.890;8.240;2022-08-25T12:44:31;33.50;79.90
21559;DHT22;10940;48.890;8.240;2022-08-25T12:47:28;33.60;80.90
21559;DHT22;10940;48.890;8.240;2022-08-25T12:55:51;33.10;81.20
21559;DHT22;10940;48.890;8.240;2022-08-25T12:58:19;33.20;80.20
21559;DHT22;10940;48.890;8.240;2022-08-25T13:00:56;33.20;81.00
21559;DHT22;10940;48.890;8.240;2022-08-25T13:04:11;33.20;79.40
21559;DHT22;10940;48.890;8.240;2022-08-25T13:14:45;34.20;77.80
21559;DHT22;10940;48.890;8.240;2022-08-25T13:17:34;34.20;76.10
21559;DHT22;10940;48.890;8.240;2022-08-25T13:20:31;34.10;76.30
21559;DHT22;10940;48.890;8.240;2022-08-25T13:22:59;34.10;76.60
21559;DHT22;10940;48.890;8.240;2022-08-25T13:25:27;34.40;75.60
21559;DHT22;10940;48.890;8.240;2022-08-25T13:27:57;34.40;74.30
21559;DHT22;10940;48.890;8.240;2022-08-25T13:30:27;34.30;77.30
21559;DHT22;10940;48.890;8.240;2022-08-25T13:32:53;34.40;76.10
21559;DHT22;10940;48.890;8.240;2022-08-25T13:35:29;34.60;74.90
21559;DHT22;10940;48.890;8.240;2022-08-25T13:38:17;34.80;77.30
21559;DHT22;10940;48.890;8.240;2022-08-25T13:40:44;34.80;76.30
21559;DHT22;10940;48.890;8.240;2022-08-25T13:43:11;34.80;74.20
21559;DHT22;10940;48.890;8.240;2022-08-25T13:45:43;34.50;75.20
21559;DHT22;10940;48.890;8.240;2022-08-25T13:48:10;34.40;73.10
21559;DHT22;10940;48.890;8.240;2022-08-25T13:50:39;34.10;74.80
21559;DHT22;10940;48.890;8.240;2022-08-25T13:53:12;33.80;73.70
21559;DHT22;10940;48.890;8.240;2022-08-25T13:58:19;33.00;77.20
21559;DHT22;10940;48.890;8.240;2022-08-25T14:03:36;33.20;77.00
21559;DHT22;10940;48.890;8.240;2022-08-25T14:06:18;33.30;76.40
21559;DHT22;10940;48.890;8.240;2022-08-25T14:09:10;33.30;76.50
21559;DHT22;10940;48.890;8.240;2022-08-25T14:11:45;33.40;76.90
21559;DHT22;10940;48.890;8.240;2022-08-25T14:19:20;33.30;75.70
21559;DHT22;10940;48.890;8.240;2022-08-25T14:21:48;33.40;75.90
21559;DHT22;10940;48.890;8.240;2022-08-25T14:24:18;33.50;74.40
21559;DHT22;10940;48.890;8.240;2022-08-25T14:26:44;33.50;76.10
21559;DHT22;10940;48.890;8.240;2022-08-25T14:29:11;33.20;75.00
21559;DHT22;10940;48.890;8.240;2022-08-25T14:31:39;32.90;75.10
21559;DHT22;10940;48.890;8.240;2022-08-25T14:34:12;32.90;75.60
21559;DHT22;10940;48.890;8.240;2022-08-25T14:36:38;33.20;78.00
21559;DHT22;10940;48.890;8.240;2022-08-25T14:39:04;33.40;75.30
21559;DHT22;10940;48.890;8.240;2022-08-25T14:41:32;33.40;73.60
21559;DHT22;10940;48.890;8.240;2022-08-25T14:44:02;33.30;74.70
21559;DHT22;10940;48.890;8.240;2022-08-25T14:46:32;33.10;74.90
21559;DHT22;10940;48.890;8.240;2022-08-25T14:49:02;32.90;75.00
21559;DHT22;10940;48.890;8.240;2022-08-25T14:51:29;32.80;75.70
21559;DHT22;10940;48.890;8.240;2022-08-25T14:53:59;32.80;74.30
21559;DHT22;10940;48.890;8.240;2022-08-25T14:56:26;32.70;76.60
21559;DHT22;10940;48.890;8.240;2022-08-25T14:58:51;32.70;75.50
21559;DHT22;10940;48.890;8.240;2022-08-25T15:01:19;32.70;75.80
21559;DHT22;10940;48.890;8.240;2022-08-25T15:03:47;32.90;79.50
21559;DHT22;10940;48.890;8.240;2022-08-25T15:06:15;32.90;74.50
21559;DHT22;10940;48.890;8.240;2022-08-25T15:08:42;32.90;76.30
21559;DHT22;10940;48.890;8.240;2022-08-25T15:11:27;33.10;75.30
21559;DHT22;10940;48.890;8.240;2022-08-25T15:13:53;33.40;75.60
21559;DHT22;10940;48.890;8.240;2022-08-25T15:16:37;33.40;75.10
21559;DHT22;10940;48.890;8.240;2022-08-25T15:19:08;33.10;73.70
21559;DHT22;10940;48.890;8.240;2022-08-25T15:21:35;33.10;74.00
21559;DHT22;10940;48.890;8.240;2022-08-25T15:24:01;33.00;73.50
21559;DHT22;10940;48.890;8.240;2022-08-25T15:26:27;32.90;73.30
21559;DHT22;10940;48.890;8.240;2022-08-25T15:28:53;32.90;77.60
21559;DHT22;10940;48.890;8.240;2022-08-25T15:31:19;33.00;74.10
21559;DHT22;10940;48.890;8.240;2022-08-25T15:33:45;33.00;74.00
21559;DHT22;10940;48.890;8.240;2022-08-25T15:36:13;32.90;73.50
21559;DHT22;10940;48.890;8.240;2022-08-25T15:38:41;32.80;73.40
21559;DHT22;10940;48.890;8.240;2022-08-25T15:41:11;32.70;76.00
21559;DHT22;10940;48.890;8.240;2022-08-25T15:43:37;32.70;74.20
21559;DHT22;10940;48.890;8.240;2022-08-25T15:46:04;32.70;74.70
21559;DHT22;10940;48.890;8.240;2022-08-25T15:48:31;32.80;73.80
21559;DHT22;10940;48.890;8.240;2022-08-25T15:50:57;32.70;74.30
21559;DHT22;10940;48.890;8.240;2022-08-25T15:53:26;32.60;74.70
21559;DHT22;10940;48.890;8.240;2022-08-25T15:55:52;32.50;75.70
21559;DHT22;10940;48.890;8.240;2022-08-25T15:58:18;32.60;75.30
21559;DHT22;10940;48.890;8.240;2022-08-25T16:00:45;32.50;74.40
21559;DHT22;10940;48.890;8.240;2022-08-25T16:03:11;32.50;74.10
21559;DHT22;10940;48.890;8.240;2022-08-25T16:05:39;32.30;74.30
21559;DHT22;10940;48.890;8.240;2022-08-25T16:08:06;32.30;74.60
21559;DHT22;10940;48.890;8.240;2022-08-25T16:10:34;32.20;81.30
21559;DHT22;10940;48.890;8.240;2022-08-25T16:13:00;32.00;78.20
21559;DHT22;10940;48.890;8.240;2022-08-25T16:15:26;31.80;77.00
21559;DHT22;10940;48.890;8.240;2022-08-25T16:17:52;31.70;78.10
21559;DHT22;10940;48.890;8.240;2022-08-25T16:20:18;31.60;77.70
21559;DHT22;10940;48.890;8.240;2022-08-25T16:22:45;31.60;78.40
21559;DHT22;10940;48.890;8.240;2022-08-25T16:25:11;31.40;77.10
21559;DHT22;10940;48.890;8.240;2022-08-25T16:27:37;31.20;85.30
21559;DHT22;10940;48.890;8.240;2022-08-25T16:30:03;31.20;79.50
21559;DHT22;10940;48.890;8.240;2022-08-25T16:32:30;31.30;82.20
21559;DHT22;10940;48.890;8.240;2022-08-25T16:34:57;31.30;85.90
21559;DHT22;10940;48.890;8.240;2022-08-25T16:37:22;31.20;87.80
21559;DHT22;10940;48.890;8.240;2022-08-25T16:39:52;31.20;83.00
21559;DHT22;10940;48.890;8.240;2022-08-25T16:42:17;31.20;83.50
21559;DHT22;10940;48.890;8.240;2022-08-25T16:44:43;31.10;89.80
21559;DHT22;10940;48.890;8.240;2022-08-25T16:47:09;30.80;83.10
21559;DHT22;10940;48.890;8.240;2022-08-25T16:49:34;30.60;87.10
21559;DHT22;10940;48.890;8.240;2022-08-25T16:52:00;30.40;91.30
21559;DHT22;10940;48.890;8.240;2022-08-25T16:54:28;30.30;83.00
21559;DHT22;10940;48.890;8.240;2022-08-25T16:57:12;30.20;87.90
21559;DHT22;10940;48.890;8.240;2022-08-25T16:59:38;30.20;83.20
21559;DHT22;10940;48.890;8.240;2022-08-25T17:02:03;30.20;90.30
21559;DHT22;10940;48.890;8.240;2022-08-25T17:04:30;30.10;85.20
21559;DHT22;10940;48.890;8.240;2022-08-25T17:06:56;30.10;84.70
21559;DHT22;10940;48.890;8.240;2022-08-25T17:09:21;30.20;87.70
21559;DHT22;10940;48.890;8.240;2022-08-25T17:11:47;30.30;82.30
21559;DHT22;10940;48.890;8.240;2022-08-25T17:14:14;30.30;81.70
21559;DHT22;10940;48.890;8.240;2022-08-25T17:16:41;30.30;83.80
21559;DHT22;10940;48.890;8.240;2022-08-25T17:19:09;30.20;83.60
21559;DHT22;10940;48.890;8.240;2022-08-25T17:21:38;30.00;82.70
21559;DHT22;10940;48.890;8.240;2022-08-25T17:24:05;29.90;83.20
21559;DHT22;10940;48.890;8.240;2022-08-25T17:26:31;29.80;85.00
21559;DHT22;10940;48.890;8.240;2022-08-25T17:28:58;29.70;87.40
21559;DHT22;10940;48.890;8.240;2022-08-25T17:31:24;29.50;83.70
21559;DHT22;10940;48.890;8.240;2022-08-25T17:33:50;29.50;87.60
21559;DHT22;10940;48.890;8.240;2022-08-25T17:36:16;29.40;86.80
21559;DHT22;10940;48.890;8.240;2022-08-25T17:38:42;29.30;87.80
21559;DHT22;10940;48.890;8.240;2022-08-25T17:41:09;29.30;86.30
21559;DHT22;10940;48.890;8.240;2022-08-25T17:43:38;29.20;89.00
21559;DHT22;10940;48.890;8.240;2022-08-25T17:46:07;29.10;86.60